sensor_id;sensor_type;location;lat;lon;timestamp;temperature;humidity
31735;DHT22;18313;48.518;9.124;2022-12-16T00:01:06;-0.60;99.90
31735;DHT22;18313;48.518;9.124;2022-12-16T00:03:55;-0.60;99.90
31735;DHT22;18313;48.518;9.124;2022-12-16T00:06:41;-0.50;99.90
31735;DHT22;18313;48.518;9.124;2022-12-16T00:09:26;-0.50;99.90
31735;DHT22;18313;48.518;9.124;2022-12-16T00:12:12;-0.50;99.90
31735;DHT22;18313;48.518;9.124;2022-12-16T00:14:57;-0.50;99.90
31735;DHT22;18313;48.518;9.124;2022-12-16T00:17:43;-0.50;99.90
31735;DHT22;18313;48.518;9.124;2022-12-16T00:20:28;-0.50;99.90
31735;DHT22;18313;48.518;9.124;2022-12-16T00:23:14;-0.50;99.90
31735;DHT22;18313;48.518;9.124;2022-12-16T00:26:00;-0.50;99.90
31735;DHT22;18313;48.518;9.124;2022-12-16T00:28:46;-0.50;99.90
31735;DHT22;18313;48.518;9.124;2022-12-16T00:31:31;-0.50;99.90
31735;DHT22;18313;48.518;9.124;2022-12-16T00:34:17;-0.60;99.90
31735;DHT22;18313;48.518;9.124;2022-12-16T00:37:02;-0.60;99.90
31735;DHT22;18313;48.518;9.124;2022-12-16T00:39:48;-0.60;99.90
31735;DHT22;18313;48.518;9.124;2022-12-16T00:42:33;-0.60;99.90
31735;DHT22;18313;48.518;9.124;2022-12-16T00:45:19;-0.60;99.90
31735;DHT22;18313;48.518;9.124;2022-12-16T00:48:06;-0.60;99.90
31735;DHT22;18313;48.518;9.124;2022-12-16T00:50:53;-0.60;99.90
31735;DHT22;18313;48.518;9.124;2022-12-16T00:53:39;-0.60;99.90
31735;DHT22;18313;48.518;9.124;2022-12-16T00:56:25;-0.60;99.90
31735;DHT22;18313;48.518;9.124;2022-12-16T00:59:10;-0.60;99.90
31735;DHT22;18313;48.518;9.124;2022-12-16T01:01:56;-0.50;99.90
31735;DHT22;18313;48.518;9.124;2022-12-16T01:04:42;-0.50;99.90
31735;DHT22;18313;48.518;9.124;2022-12-16T01:07:28;-0.60;99.90
31735;DHT22;18313;48.518;9.124;2022-12-16T01:10:14;-0.60;99.90
31735;DHT22;18313;48.518;9.124;2022-12-16T01:12:59;-0.50;99.90
31735;DHT22;18313;48.518;9.124;2022-12-16T01:15:45;-0.50;99.90
31735;DHT22;18313;48.518;9.124;2022-12-16T01:18:31;-0.60;99.90
31735;DHT22;18313;48.518;9.124;2022-12-16T01:21:17;-0.60;99.90
31735;DHT22;18313;48.518;9.124;2022-12-16T01:24:02;-0.60;99.90
31735;DHT22;18313;48.518;9.124;2022-12-16T01:26:48;-0.70;99.90
31735;DHT22;18313;48.518;9.124;2022-12-16T01:29:34;-0.70;99.90
31735;DHT22;18313;48.518;9.124;2022-12-16T01:32:20;-0.60;99.90
31735;DHT22;18313;48.518;9.124;2022-12-16T01:35:07;-0.70;99.90
31735;DHT22;18313;48.518;9.124;2022-12-16T01:38:12;-0.60;99.90
31735;DHT22;18313;48.518;9.124;2022-12-16T01:40:58;-0.60;99.90
31735;DHT22;18313;48.518;9.124;2022-12-16T01:43:45;-0.50;99.90
31735;DHT22;18313;48.518;9.124;2022-12-16T01:46:30;-0.60;99.90
31735;DHT22;18313;48.518;9.124;2022-12-16T01:49:23;-0.70;99.90
31735;DHT22;18313;48.518;9.124;2022-12-16T01:52:18;-0.70;99.90
31735;DHT22;18313;48.518;9.124;2022-12-16T01:55:11;-0.80;99.90
31735;DHT22;18313;48.518;9.124;2022-12-16T01:58:02;-0.70;99.90
31735;DHT22;18313;48.518;9.124;2022-12-16T02:00:50;-0.80;99.90
31735;DHT22;18313;48.518;9.124;2022-12-16T02:03:39;-0.70;99.90
31735;DHT22;18313;48.518;9.124;2022-12-16T02:06:27;-0.80;99.90
31735;DHT22;18313;48.518;9.124;2022-12-16T02:09:13;-0.80;99.90
31735;DHT22;18313;48.518;9.124;2022-12-16T02:15:13;-0.90;99.90
31735;DHT22;18313;48.518;9.124;2022-12-16T02:18:16;-0.90;99.90
31735;DHT22;18313;48.518;9.124;2022-12-16T02:39:26;-0.90;99.90
31735;DHT22;18313;48.518;9.124;2022-12-16T02:42:16;-1.00;99.90
31735;DHT22;18313;48.518;9.124;2022-12-16T02:45:12;-1.10;99.90
31735;DHT22;18313;48.518;9.124;2022-12-16T02:47:59;-1.20;99.90
31735;DHT22;18313;48.518;9.124;2022-12-16T02:50:50;-1.30;99.90
31735;DHT22;18313;48.518;9.124;2022-12-16T02:53:37;-1.30;99.90
31735;DHT22;18313;48.518;9.124;2022-12-16T02:59:47;-1.20;99.90
31735;DHT22;18313;48.518;9.124;2022-12-16T03:03:11;-1.10;99.90
31735;DHT22;18313;48.518;9.124;2022-12-16T03:06:00;-1.10;99.90
31735;DHT22;18313;48.518;9.124;2022-12-16T03:08:50;-1.10;99.90
31735;DHT22;18313;48.518;9.124;2022-12-16T03:11:37;-1.10;99.90
31735;DHT22;18313;48.518;9.124;2022-12-16T03:14:27;-1.10;99.90
31735;DHT22;18313;48.518;9.124;2022-12-16T03:17:14;-1.10;99.90
31735;DHT22;18313;48.518;9.124;2022-12-16T03:20:22;-1.00;99.90
31735;DHT22;18313;48.518;9.124;2022-12-16T03:23:12;-1.00;99.90
31735;DHT22;18313;48.518;9.124;2022-12-16T03:26:05;-1.10;99.90
31735;DHT22;18313;48.518;9.124;2022-12-16T03:29:05;-1.10;99.90
31735;DHT22;18313;48.518;9.124;2022-12-16T03:31:59;-1.10;99.90
31735;DHT22;18313;48.518;9.124;2022-12-16T03:34:50;-1.00;99.90
31735;DHT22;18313;48.518;9.124;2022-12-16T03:37:38;-1.00;99.90
31735;DHT22;18313;48.518;9.124;2022-12-16T03:40:26;-1.00;99.90
31735;DHT22;18313;48.518;9.124;2022-12-16T03:43:13;-1.00;99.90
31735;DHT22;18313;48.518;9.124;2022-12-16T03:46:02;-1.00;99.90
31735;DHT22;18313;48.518;9.124;2022-12-16T03:48:50;-1.00;99.90
31735;DHT22;18313;48.518;9.124;2022-12-16T03:51:36;-1.00;99.90
31735;DHT22;18313;48.518;9.124;2022-12-16T03:54:22;-1.10;99.90
31735;DHT22;18313;48.518;9.124;2022-12-16T03:57:08;-1.10;99.90
31735;DHT22;18313;48.518;9.124;2022-12-16T03:59:59;-1.10;99.90
31735;DHT22;18313;48.518;9.124;2022-12-16T04:02:45;-1.00;99.90
31735;DHT22;18313;48.518;9.124;2022-12-16T04:05:31;-1.00;99.90
31735;DHT22;18313;48.518;9.124;2022-12-16T04:08:17;-1.00;99.90
31735;DHT22;18313;48.518;9.124;2022-12-16T04:11:02;-0.90;99.90
31735;DHT22;18313;48.518;9.124;2022-12-16T04:14:07;-1.00;99.90
31735;DHT22;18313;48.518;9.124;2022-12-16T04:17:12;-1.00;99.90
31735;DHT22;18313;48.518;9.124;2022-12-16T04:20:17;-1.00;99.90
31735;DHT22;18313;48.518;9.124;2022-12-16T04:23:25;-1.00;99.90
31735;DHT22;18313;48.518;9.124;2022-12-16T04:26:29;-1.00;99.90
31735;DHT22;18313;48.518;9.124;2022-12-16T04:29:15;-1.00;99.90
31735;DHT22;18313;48.518;9.124;2022-12-16T04:32:01;-1.00;99.90
31735;DHT22;18313;48.518;9.124;2022-12-16T04:34:47;-1.00;99.90
31735;DHT22;18313;48.518;9.124;2022-12-16T04:37:32;-1.00;99.90
31735;DHT22;18313;48.518;9.124;2022-12-16T04:40:37;-1.10;99.90
31735;DHT22;18313;48.518;9.124;2022-12-16T04:43:41;-1.20;99.90
31735;DHT22;18313;48.518;9.124;2022-12-16T04:46:45;-1.20;99.90
31735;DHT22;18313;48.518;9.124;2022-12-16T04:49:50;-1.20;99.90
31735;DHT22;18313;48.518;9.124;2022-12-16T04:52:54;-1.10;99.90
31735;DHT22;18313;48.518;9.124;2022-12-16T04:55:58;-1.00;99.90
31735;DHT22;18313;48.518;9.124;2022-12-16T04:59:02;-1.10;99.90
31735;DHT22;18313;48.518;9.124;2022-12-16T05:02:07;-1.10;99.90
31735;DHT22;18313;48.518;9.124;2022-12-16T05:05:12;-1.20;99.90
31735;DHT22;18313;48.518;9.124;2022-12-16T05:08:15;-1.20;99.90
31735;DHT22;18313;48.518;9.124;2022-12-16T05:11:19;-1.00;99.90
31735;DHT22;18313;48.518;9.124;2022-12-16T05:14:24;-1.10;99.90
31735;DHT22;18313;48.518;9.124;2022-12-16T05:17:27;-1.00;99.90
31735;DHT22;18313;48.518;9.124;2022-12-16T05:20:31;-1.00;99.90
31735;DHT22;18313;48.518;9.124;2022-12-16T05:23:35;-1.00;99.90
31735;DHT22;18313;48.518;9.124;2022-12-16T05:26:39;-1.00;99.90
31735;DHT22;18313;48.518;9.124;2022-12-16T05:29:43;-1.00;99.90
31735;DHT22;18313;48.518;9.124;2022-12-16T05:32:48;-1.00;99.90
31735;DHT22;18313;48.518;9.124;2022-12-16T05:35:53;-1.00;99.90
31735;DHT22;18313;48.518;9.124;2022-12-16T05:38:56;-1.10;99.90
31735;DHT22;18313;48.518;9.124;2022-12-16T05:42:00;-1.00;99.90
31735;DHT22;18313;48.518;9.124;2022-12-16T05:45:05;-1.10;99.90
31735;DHT22;18313;48.518;9.124;2022-12-16T05:48:09;-1.10;99.90
31735;DHT22;18313;48.518;9.124;2022-12-16T05:51:13;-1.00;99.90
31735;DHT22;18313;48.518;9.124;2022-12-16T05:54:17;-1.10;99.90
31735;DHT22;18313;48.518;9.124;2022-12-16T05:57:21;-1.10;99.90
31735;DHT22;18313;48.518;9.124;2022-12-16T06:00:25;-1.00;99.90
31735;DHT22;18313;48.518;9.124;2022-12-16T06:03:29;-1.10;99.90
31735;DHT22;18313;48.518;9.124;2022-12-16T06:06:33;-1.20;99.90
31735;DHT22;18313;48.518;9.124;2022-12-16T06:09:37;-1.20;99.90
31735;DHT22;18313;48.518;9.124;2022-12-16T06:12:45;-1.10;99.90
31735;DHT22;18313;48.518;9.124;2022-12-16T06:15:49;-1.10;99.90
31735;DHT22;18313;48.518;9.124;2022-12-16T06:18:54;-1.00;99.90
31735;DHT22;18313;48.518;9.124;2022-12-16T06:21:58;-1.00;99.90
31735;DHT22;18313;48.518;9.124;2022-12-16T06:25:03;-1.10;99.90
31735;DHT22;18313;48.518;9.124;2022-12-16T06:28:07;-1.10;99.90
31735;DHT22;18313;48.518;9.124;2022-12-16T06:31:11;-1.10;99.90
31735;DHT22;18313;48.518;9.124;2022-12-16T06:34:16;-1.10;99.90
31735;DHT22;18313;48.518;9.124;2022-12-16T06:37:20;-1.10;99.90
31735;DHT22;18313;48.518;9.124;2022-12-16T06:40:24;-1.10;99.90
31735;DHT22;18313;48.518;9.124;2022-12-16T06:43:28;-1.10;99.90
31735;DHT22;18313;48.518;9.124;2022-12-16T06:46:32;-1.10;99.90
31735;DHT22;18313;48.518;9.124;2022-12-16T06:49:36;-1.00;99.90
31735;DHT22;18313;48.518;9.124;2022-12-16T06:52:44;-1.00;99.90
31735;DHT22;18313;48.518;9.124;2022-12-16T06:55:48;-1.00;99.90
31735;DHT22;18313;48.518;9.124;2022-12-16T06:58:52;-1.00;99.90
31735;DHT22;18313;48.518;9.124;2022-12-16T07:01:56;-0.90;99.90
31735;DHT22;18313;48.518;9.124;2022-12-16T07:05:01;-1.00;99.90
31735;DHT22;18313;48.518;9.124;2022-12-16T07:08:05;-1.00;99.90
31735;DHT22;18313;48.518;9.124;2022-12-16T07:11:09;-1.00;99.90
31735;DHT22;18313;48.518;9.124;2022-12-16T07:14:13;-1.00;99.90
31735;DHT22;18313;48.518;9.124;2022-12-16T07:17:17;-1.00;99.90
31735;DHT22;18313;48.518;9.124;2022-12-16T07:20:21;-1.10;99.90
31735;DHT22;18313;48.518;9.124;2022-12-16T07:23:25;-1.10;99.90
31735;DHT22;18313;48.518;9.124;2022-12-16T07:26:29;-0.90;99.90
31735;DHT22;18313;48.518;9.124;2022-12-16T07:29:33;-1.10;99.90
31735;DHT22;18313;48.518;9.124;2022-12-16T07:32:37;-1.00;99.90
31735;DHT22;18313;48.518;9.124;2022-12-16T07:35:42;-1.10;99.90
31735;DHT22;18313;48.518;9.124;2022-12-16T07:38:46;-1.10;99.90
31735;DHT22;18313;48.518;9.124;2022-12-16T07:41:50;-1.00;99.90
31735;DHT22;18313;48.518;9.124;2022-12-16T07:44:54;-0.90;99.90
31735;DHT22;18313;48.518;9.124;2022-12-16T07:47:58;-1.00;99.90
31735;DHT22;18313;48.518;9.124;2022-12-16T07:51:02;-1.00;99.90
31735;DHT22;18313;48.518;9.124;2022-12-16T07:54:05;-1.10;99.90
31735;DHT22;18313;48.518;9.124;2022-12-16T07:57:09;-1.10;99.90
31735;DHT22;18313;48.518;9.124;2022-12-16T08:00:13;-1.10;99.90
31735;DHT22;18313;48.518;9.124;2022-12-16T08:03:18;-1.10;99.90
31735;DHT22;18313;48.518;9.124;2022-12-16T08:06:22;-1.10;99.90
31735;DHT22;18313;48.518;9.124;2022-12-16T08:09:26;-1.10;99.90
31735;DHT22;18313;48.518;9.124;2022-12-16T08:12:30;-1.00;99.90
31735;DHT22;18313;48.518;9.124;2022-12-16T08:15:34;-1.00;99.90
31735;DHT22;18313;48.518;9.124;2022-12-16T08:18:40;-1.10;99.90
31735;DHT22;18313;48.518;9.124;2022-12-16T08:21:44;-0.90;99.90
31735;DHT22;18313;48.518;9.124;2022-12-16T08:24:48;-0.80;99.90
31735;DHT22;18313;48.518;9.124;2022-12-16T08:27:54;-0.80;99.90
31735;DHT22;18313;48.518;9.124;2022-12-16T08:30:58;-0.80;99.90
31735;DHT22;18313;48.518;9.124;2022-12-16T08:34:02;-0.80;99.90
31735;DHT22;18313;48.518;9.124;2022-12-16T08:37:06;-0.70;99.90
31735;DHT22;18313;48.518;9.124;2022-12-16T08:40:10;-0.60;99.90
31735;DHT22;18313;48.518;9.124;2022-12-16T08:43:21;-0.60;99.90
31735;DHT22;18313;48.518;9.124;2022-12-16T08:46:25;-0.50;99.90
31735;DHT22;18313;48.518;9.124;2022-12-16T08:49:29;-0.40;99.90
31735;DHT22;18313;48.518;9.124;2022-12-16T08:52:33;-0.40;99.90
31735;DHT22;18313;48.518;9.124;2022-12-16T08:55:37;-0.40;99.90
31735;DHT22;18313;48.518;9.124;2022-12-16T08:58:41;-0.30;99.90
31735;DHT22;18313;48.518;9.124;2022-12-16T09:01:45;-0.30;99.90
31735;DHT22;18313;48.518;9.124;2022-12-16T09:04:49;-0.20;99.90
31735;DHT22;18313;48.518;9.124;2022-12-16T09:08:00;-0.20;99.90
31735;DHT22;18313;48.518;9.124;2022-12-16T09:11:05;-0.10;99.90
31735;DHT22;18313;48.518;9.124;2022-12-16T09:14:09;0.00;99.90
31735;DHT22;18313;48.518;9.124;2022-12-16T09:17:13;-0.10;99.90
31735;DHT22;18313;48.518;9.124;2022-12-16T09:20:17;0.00;99.90
31735;DHT22;18313;48.518;9.124;2022-12-16T09:23:21;-0.10;99.90
31735;DHT22;18313;48.518;9.124;2022-12-16T09:26:28;0.00;99.90
31735;DHT22;18313;48.518;9.124;2022-12-16T09:29:32;0.00;99.90
31735;DHT22;18313;48.518;9.124;2022-12-16T09:32:43;-0.10;99.90
31735;DHT22;18313;48.518;9.124;2022-12-16T09:35:47;-0.10;99.90
31735;DHT22;18313;48.518;9.124;2022-12-16T09:38:51;-0.10;99.90
31735;DHT22;18313;48.518;9.124;2022-12-16T09:41:59;0.00;99.90
31735;DHT22;18313;48.518;9.124;2022-12-16T09:51:41;0.20;99.90
31735;DHT22;18313;48.518;9.124;2022-12-16T09:54:48;0.40;99.90
31735;DHT22;18313;48.518;9.124;2022-12-16T09:57:52;0.60;99.90
31735;DHT22;18313;48.518;9.124;2022-12-16T10:00:56;0.70;99.90
31735;DHT22;18313;48.518;9.124;2022-12-16T10:04:00;0.70;99.90
31735;DHT22;18313;48.518;9.124;2022-12-16T10:07:07;0.80;99.90
31735;DHT22;18313;48.518;9.124;2022-12-16T10:13:36;0.80;99.90
31735;DHT22;18313;48.518;9.124;2022-12-16T10:23:29;0.90;99.90
31735;DHT22;18313;48.518;9.124;2022-12-16T10:27:00;0.90;99.90
31735;DHT22;18313;48.518;9.124;2022-12-16T10:30:13;1.00;99.90
31735;DHT22;18313;48.518;9.124;2022-12-16T10:33:19;1.00;99.90
31735;DHT22;18313;48.518;9.124;2022-12-16T10:36:25;1.10;99.90
31735;DHT22;18313;48.518;9.124;2022-12-16T10:39:37;1.20;99.90
31735;DHT22;18313;48.518;9.124;2022-12-16T10:43:04;1.30;99.90
31735;DHT22;18313;48.518;9.124;2022-12-16T10:46:19;1.50;99.90
31735;DHT22;18313;48.518;9.124;2022-12-16T10:49:23;1.50;99.90
31735;DHT22;18313;48.518;9.124;2022-12-16T10:52:27;1.50;99.90
31735;DHT22;18313;48.518;9.124;2022-12-16T10:59:02;1.60;99.90
31735;DHT22;18313;48.518;9.124;2022-12-16T11:02:18;1.60;99.90
31735;DHT22;18313;48.518;9.124;2022-12-16T11:05:30;1.70;99.90
31735;DHT22;18313;48.518;9.124;2022-12-16T11:08:35;1.70;99.90
31735;DHT22;18313;48.518;9.124;2022-12-16T11:11:39;1.80;99.90
31735;DHT22;18313;48.518;9.124;2022-12-16T11:14:51;1.70;99.90
31735;DHT22;18313;48.518;9.124;2022-12-16T11:18:18;1.80;99.90
31735;DHT22;18313;48.518;9.124;2022-12-16T11:21:22;1.80;99.90
31735;DHT22;18313;48.518;9.124;2022-12-16T11:24:26;1.90;99.90
31735;DHT22;18313;48.518;9.124;2022-12-16T11:27:30;1.90;99.90
31735;DHT22;18313;48.518;9.124;2022-12-16T11:30:35;2.00;99.90
31735;DHT22;18313;48.518;9.124;2022-12-16T11:33:40;2.10;99.90
31735;DHT22;18313;48.518;9.124;2022-12-16T11:36:45;2.00;99.90
31735;DHT22;18313;48.518;9.124;2022-12-16T11:39:55;2.10;99.90
31735;DHT22;18313;48.518;9.124;2022-12-16T11:43:01;2.10;99.90
31735;DHT22;18313;48.518;9.124;2022-12-16T11:46:11;2.10;99.90
31735;DHT22;18313;48.518;9.124;2022-12-16T11:49:27;2.20;99.90
31735;DHT22;18313;48.518;9.124;2022-12-16T11:52:33;2.10;99.90
31735;DHT22;18313;48.518;9.124;2022-12-16T11:55:42;2.10;99.90
31735;DHT22;18313;48.518;9.124;2022-12-16T11:59:01;2.00;99.90
31735;DHT22;18313;48.518;9.124;2022-12-16T12:02:17;1.80;99.90
31735;DHT22;18313;48.518;9.124;2022-12-16T12:05:31;1.70;99.90
31735;DHT22;18313;48.518;9.124;2022-12-16T12:15:33;1.60;99.90
31735;DHT22;18313;48.518;9.124;2022-12-16T12:18:53;1.70;99.90
31735;DHT22;18313;48.518;9.124;2022-12-16T12:22:11;1.70;99.90
31735;DHT22;18313;48.518;9.124;2022-12-16T12:28:42;1.90;99.90
31735;DHT22;18313;48.518;9.124;2022-12-16T12:35:54;1.90;99.90
31735;DHT22;18313;48.518;9.124;2022-12-16T12:42:34;2.00;99.90
31735;DHT22;18313;48.518;9.124;2022-12-16T12:46:01;2.20;99.90
31735;DHT22;18313;48.518;9.124;2022-12-16T12:49:24;2.20;99.90
31735;DHT22;18313;48.518;9.124;2022-12-16T12:53:01;2.20;99.90
31735;DHT22;18313;48.518;9.124;2022-12-16T12:56:25;2.30;99.90
31735;DHT22;18313;48.518;9.124;2022-12-16T13:06:02;2.10;99.90
31735;DHT22;18313;48.518;9.124;2022-12-16T13:09:28;1.90;99.90
31735;DHT22;18313;48.518;9.124;2022-12-16T13:12:33;1.90;99.90
31735;DHT22;18313;48.518;9.124;2022-12-16T13:15:38;1.80;99.90
31735;DHT22;18313;48.518;9.124;2022-12-16T13:18:43;1.80;99.90
31735;DHT22;18313;48.518;9.124;2022-12-16T13:21:53;1.70;99.90
31735;DHT22;18313;48.518;9.124;2022-12-16T13:24:59;1.70;99.90
31735;DHT22;18313;48.518;9.124;2022-12-16T13:28:32;1.80;99.90
31735;DHT22;18313;48.518;9.124;2022-12-16T13:32:29;1.90;99.90
31735;DHT22;18313;48.518;9.124;2022-12-16T13:35:26;1.80;99.90
31735;DHT22;18313;48.518;9.124;2022-12-16T13:38:30;1.80;99.90
31735;DHT22;18313;48.518;9.124;2022-12-16T13:50:50;2.00;99.90
31735;DHT22;18313;48.518;9.124;2022-12-16T13:54:05;1.90;99.90
31735;DHT22;18313;48.518;9.124;2022-12-16T13:57:10;1.90;99.90
31735;DHT22;18313;48.518;9.124;2022-12-16T14:00:19;1.90;99.90
31735;DHT22;18313;48.518;9.124;2022-12-16T14:03:50;1.90;99.90
31735;DHT22;18313;48.518;9.124;2022-12-16T14:07:00;1.90;99.90
31735;DHT22;18313;48.518;9.124;2022-12-16T14:16:51;1.90;99.90
31735;DHT22;18313;48.518;9.124;2022-12-16T14:20:09;1.80;99.90
31735;DHT22;18313;48.518;9.124;2022-12-16T14:23:36;1.80;99.90
31735;DHT22;18313;48.518;9.124;2022-12-16T14:26:42;1.70;99.90
31735;DHT22;18313;48.518;9.124;2022-12-16T14:29:47;1.60;99.90
31735;DHT22;18313;48.518;9.124;2022-12-16T14:32:51;1.40;99.90
31735;DHT22;18313;48.518;9.124;2022-12-16T14:35:55;1.30;99.90
31735;DHT22;18313;48.518;9.124;2022-12-16T14:39:00;1.20;99.90
31735;DHT22;18313;48.518;9.124;2022-12-16T14:42:20;1.10;99.90
31735;DHT22;18313;48.518;9.124;2022-12-16T14:45:29;1.10;99.90
31735;DHT22;18313;48.518;9.124;2022-12-16T14:48:39;1.10;99.90
31735;DHT22;18313;48.518;9.124;2022-12-16T14:51:47;0.90;99.90
31735;DHT22;18313;48.518;9.124;2022-12-16T14:54:52;0.80;99.90
31735;DHT22;18313;48.518;9.124;2022-12-16T14:58:11;0.80;99.90
31735;DHT22;18313;48.518;9.124;2022-12-16T15:01:25;0.80;99.90
31735;DHT22;18313;48.518;9.124;2022-12-16T15:04:30;0.80;99.90
31735;DHT22;18313;48.518;9.124;2022-12-16T15:07:35;0.80;99.90
31735;DHT22;18313;48.518;9.124;2022-12-16T15:10:40;0.80;99.90
31735;DHT22;18313;48.518;9.124;2022-12-16T15:13:45;0.70;99.90
31735;DHT22;18313;48.518;9.124;2022-12-16T15:16:51;0.60;99.90
31735;DHT22;18313;48.518;9.124;2022-12-16T15:19:56;0.40;99.90
31735;DHT22;18313;48.518;9.124;2022-12-16T15:23:00;0.30;99.90
31735;DHT22;18313;48.518;9.124;2022-12-16T15:26:04;0.20;99.90
31735;DHT22;18313;48.518;9.124;2022-12-16T15:29:38;0.20;99.90
31735;DHT22;18313;48.518;9.124;2022-12-16T15:32:51;0.10;99.90
31735;DHT22;18313;48.518;9.124;2022-12-16T15:36:00;0.20;99.90
31735;DHT22;18313;48.518;9.124;2022-12-16T15:39:20;0.10;99.90
31735;DHT22;18313;48.518;9.124;2022-12-16T15:42:27;0.10;99.90
31735;DHT22;18313;48.518;9.124;2022-12-16T15:45:31;0.00;99.90
31735;DHT22;18313;48.518;9.124;2022-12-16T15:48:36;0.00;99.90
31735;DHT22;18313;48.518;9.124;2022-12-16T15:51:46;-0.10;99.90
31735;DHT22;18313;48.518;9.124;2022-12-16T15:54:52;-0.20;99.90
31735;DHT22;18313;48.518;9.124;2022-12-16T15:57:57;-0.30;99.90
31735;DHT22;18313;48.518;9.124;2022-12-16T16:01:02;-0.30;99.90
31735;DHT22;18313;48.518;9.124;2022-12-16T16:04:24;-0.30;99.90
31735;DHT22;18313;48.518;9.124;2022-12-16T16:07:28;-0.30;99.90
31735;DHT22;18313;48.518;9.124;2022-12-16T16:10:32;-0.30;99.90
31735;DHT22;18313;48.518;9.124;2022-12-16T16:13:36;-0.30;99.90
31735;DHT22;18313;48.518;9.124;2022-12-16T16:16:49;-0.40;99.90
31735;DHT22;18313;48.518;9.124;2022-12-16T16:19:53;-0.50;99.90
31735;DHT22;18313;48.518;9.124;2022-12-16T16:22:57;-0.50;99.90
31735;DHT22;18313;48.518;9.124;2022-12-16T16:26:01;-0.50;99.90
31735;DHT22;18313;48.518;9.124;2022-12-16T16:29:05;-0.50;99.90
31735;DHT22;18313;48.518;9.124;2022-12-16T16:32:09;-0.50;99.90
31735;DHT22;18313;48.518;9.124;2022-12-16T16:35:13;-0.50;99.90
31735;DHT22;18313;48.518;9.124;2022-12-16T16:38:17;-0.50;99.90
31735;DHT22;18313;48.518;9.124;2022-12-16T16:41:21;-0.60;99.90
31735;DHT22;18313;48.518;9.124;2022-12-16T16:44:25;-0.60;99.90
31735;DHT22;18313;48.518;9.124;2022-12-16T16:47:29;-0.60;99.90
31735;DHT22;18313;48.518;9.124;2022-12-16T16:50:34;-0.70;99.90
31735;DHT22;18313;48.518;9.124;2022-12-16T16:53:38;-0.60;99.90
31735;DHT22;18313;48.518;9.124;2022-12-16T16:56:42;-0.70;99.90
31735;DHT22;18313;48.518;9.124;2022-12-16T16:59:46;-0.70;99.90
31735;DHT22;18313;48.518;9.124;2022-12-16T17:02:50;-0.80;99.90
31735;DHT22;18313;48.518;9.124;2022-12-16T17:05:54;-0.80;99.90
31735;DHT22;18313;48.518;9.124;2022-12-16T17:08:58;-0.80;99.90
31735;DHT22;18313;48.518;9.124;2022-12-16T17:12:13;-0.80;99.90
31735;DHT22;18313;48.518;9.124;2022-12-16T17:15:24;-0.90;99.90
31735;DHT22;18313;48.518;9.124;2022-12-16T17:18:28;-0.90;99.90
31735;DHT22;18313;48.518;9.124;2022-12-16T17:21:39;-0.90;99.90
31735;DHT22;18313;48.518;9.124;2022-12-16T17:24:43;-1.00;99.90
31735;DHT22;18313;48.518;9.124;2022-12-16T17:27:48;-1.00;99.90
31735;DHT22;18313;48.518;9.124;2022-12-16T17:30:52;-1.00;99.90
31735;DHT22;18313;48.518;9.124;2022-12-16T17:33:56;-0.90;99.90
31735;DHT22;18313;48.518;9.124;2022-12-16T17:37:00;-0.90;99.90
31735;DHT22;18313;48.518;9.124;2022-12-16T17:40:04;-1.00;99.90
31735;DHT22;18313;48.518;9.124;2022-12-16T17:43:19;-1.00;99.90
31735;DHT22;18313;48.518;9.124;2022-12-16T17:46:23;-1.10;99.90
31735;DHT22;18313;48.518;9.124;2022-12-16T17:49:27;-1.10;99.90
31735;DHT22;18313;48.518;9.124;2022-12-16T17:52:34;-1.10;99.90
31735;DHT22;18313;48.518;9.124;2022-12-16T17:55:40;-1.10;99.90
31735;DHT22;18313;48.518;9.124;2022-12-16T17:58:44;-1.10;99.90
31735;DHT22;18313;48.518;9.124;2022-12-16T18:01:50;-1.10;99.90
31735;DHT22;18313;48.518;9.124;2022-12-16T18:04:55;-1.00;99.90
31735;DHT22;18313;48.518;9.124;2022-12-16T18:07:59;-1.10;99.90
31735;DHT22;18313;48.518;9.124;2022-12-16T18:11:11;-1.00;99.90
31735;DHT22;18313;48.518;9.124;2022-12-16T18:14:21;-1.00;99.90
31735;DHT22;18313;48.518;9.124;2022-12-16T18:17:25;-1.10;99.90
31735;DHT22;18313;48.518;9.124;2022-12-16T18:20:29;-1.10;99.90
31735;DHT22;18313;48.518;9.124;2022-12-16T18:23:33;-1.10;99.90
31735;DHT22;18313;48.518;9.124;2022-12-16T18:26:37;-1.00;99.90
31735;DHT22;18313;48.518;9.124;2022-12-16T18:29:41;-1.10;99.90
31735;DHT22;18313;48.518;9.124;2022-12-16T18:32:45;-1.10;99.90
31735;DHT22;18313;48.518;9.124;2022-12-16T18:35:49;-1.10;99.90
31735;DHT22;18313;48.518;9.124;2022-12-16T18:38:53;-1.10;99.90
31735;DHT22;18313;48.518;9.124;2022-12-16T18:41:57;-1.00;99.90
31735;DHT22;18313;48.518;9.124;2022-12-16T18:45:01;-1.00;99.90
31735;DHT22;18313;48.518;9.124;2022-12-16T18:48:05;-1.00;99.90
31735;DHT22;18313;48.518;9.124;2022-12-16T18:51:09;-1.00;99.90
31735;DHT22;18313;48.518;9.124;2022-12-16T18:54:13;-1.00;99.90
31735;DHT22;18313;48.518;9.124;2022-12-16T18:57:17;-1.00;99.90
31735;DHT22;18313;48.518;9.124;2022-12-16T19:00:24;-1.10;99.90
31735;DHT22;18313;48.518;9.124;2022-12-16T19:03:28;-1.10;99.90
31735;DHT22;18313;48.518;9.124;2022-12-16T19:06:32;-1.10;99.90
31735;DHT22;18313;48.518;9.124;2022-12-16T19:09:36;-1.10;99.90
31735;DHT22;18313;48.518;9.124;2022-12-16T19:12:40;-1.10;99.90
31735;DHT22;18313;48.518;9.124;2022-12-16T19:15:55;-1.10;99.90
31735;DHT22;18313;48.518;9.124;2022-12-16T19:18:59;-1.20;99.90
31735;DHT22;18313;48.518;9.124;2022-12-16T19:22:04;-1.20;99.90
31735;DHT22;18313;48.518;9.124;2022-12-16T19:25:08;-1.30;99.90
31735;DHT22;18313;48.518;9.124;2022-12-16T19:28:14;-1.30;99.90
31735;DHT22;18313;48.518;9.124;2022-12-16T19:31:18;-1.20;99.90
31735;DHT22;18313;48.518;9.124;2022-12-16T19:34:23;-1.20;99.90
31735;DHT22;18313;48.518;9.124;2022-12-16T19:37:27;-1.20;99.90
31735;DHT22;18313;48.518;9.124;2022-12-16T19:40:31;-1.30;99.90
31735;DHT22;18313;48.518;9.124;2022-12-16T19:43:41;-1.20;99.90
31735;DHT22;18313;48.518;9.124;2022-12-16T19:47:05;-1.20;99.90
31735;DHT22;18313;48.518;9.124;2022-12-16T19:50:10;-1.30;99.90
31735;DHT22;18313;48.518;9.124;2022-12-16T19:53:14;-1.30;99.90
31735;DHT22;18313;48.518;9.124;2022-12-16T19:56:18;-1.30;99.90
31735;DHT22;18313;48.518;9.124;2022-12-16T19:59:22;-1.30;99.90
31735;DHT22;18313;48.518;9.124;2022-12-16T20:02:26;-1.30;99.90
31735;DHT22;18313;48.518;9.124;2022-12-16T20:05:30;-1.30;99.90
31735;DHT22;18313;48.518;9.124;2022-12-16T20:08:35;-1.30;99.90
31735;DHT22;18313;48.518;9.124;2022-12-16T20:11:41;-1.30;99.90
31735;DHT22;18313;48.518;9.124;2022-12-16T20:14:45;-1.40;99.90
31735;DHT22;18313;48.518;9.124;2022-12-16T20:17:49;-1.40;99.90
31735;DHT22;18313;48.518;9.124;2022-12-16T20:20:53;-1.40;99.90
31735;DHT22;18313;48.518;9.124;2022-12-16T20:23:57;-1.40;99.90
31735;DHT22;18313;48.518;9.124;2022-12-16T20:27:01;-1.40;99.90
31735;DHT22;18313;48.518;9.124;2022-12-16T20:30:06;-1.30;99.90
31735;DHT22;18313;48.518;9.124;2022-12-16T20:33:14;-1.40;99.90
31735;DHT22;18313;48.518;9.124;2022-12-16T20:36:18;-1.50;99.90
31735;DHT22;18313;48.518;9.124;2022-12-16T20:39:22;-1.50;99.90
31735;DHT22;18313;48.518;9.124;2022-12-16T20:42:32;-1.50;99.90
31735;DHT22;18313;48.518;9.124;2022-12-16T20:45:37;-1.50;99.90